Aérodrome :
LOGIN :

S'inscrire | Disclaimer

   EN    FR    IT 

 










Légende :    VFR   VFR Marginal   IFR   IFR Intensif   IFR Très Intensif
Visi : 
Plafond : 
>= 8 km
>= 3000ft
5 à 8 km
1000 à 3000 ft
1500m à 5 km
500 à 1000 ft
800 à 1500m
200 à 500 ft
< 800m
< 200 ft
Symboles :   Orages  Brouillard  Fortes neiges  Fortes précipitations  Vent > 20 kt
SIGMETs :   Divers  Orages  Givrage  Turbulence  Onde Orograph.  Cendres Volcan.






- Altitude de l'aérodrome : 160 ft
- Code IATA : FMO


EDDG - Münster Osnabrück Int.

DERNIER METAR :
  • 220150Z AUTO 20009KT 160V230 6000 -DZ BKN006 08/08 Q0997 REDZ TEMPO 4000 DZ

METARs EXPIRÉS :
  • 220120Z AUTO 20009KT 170V230 4700 -DZ BR BKN006 08/08 Q0998 REDZ NOSIG
  • 220050Z AUTO 19011KT 160V220 4400 DZ BR BKN006 08/08 Q0998 TEMPO NSW
  • 220020Z AUTO 19011G22KT 150V220 8000 -DZ BKN009 BKN012 08/07 Q0999 TEMPO 3000
  • 212350Z AUTO 18011KT 140V210 9999 -RA BKN011 08/07 Q0999 TEMPO RA BKN008
  • 212320Z AUTO 19012KT 150V220 9999 -RA BKN011 BKN016 08/07 Q1000 TEMPO RA BKN008
  • 212250Z AUTO 18012G22KT 9999 -RA BKN013 OVC018 08/07 Q1000
  • 212220Z AUTO 19012KT 150V220 9999 -RA BKN015 08/07 Q1001 TEMPO RA BKN012
  • 212150Z AUTO 19012KT 150V220 9999 -RA BKN018 08/06 Q1002 TEMPO RA BKN014
  • 212120Z AUTO 19013KT 150V220 9999 -RA OVC019 08/06 Q1002 TEMPO RA BKN014

TAF TAF EDDG
Valide du 22 à 00h jusqu'au 23 à 00h UTC


212300Z 2200/2224 19010KT 9999 BKN012
TEMPO 2200/2204 3000 RA BKN008
TEMPO 2204/2209 3000 -DZ BKN006
BECMG 2210/2212 BKN020
PROB30
TEMPO 2214/2216 22015G25KT RA
BECMG 2216/2219 22020G30KT
PROB30
TEMPO 2220/2224 22020G45KT SHRA BKN015CB



MET'MAP, la Météo Aéronautique d'un coup d'oeil ! - Copyright ORBIFLY Décembre 2007 - Disclaimer

ORBIFLY MET'MAP TEAM :

Programmation & Développement : Alexandra Zaïnal
Sur une idée originale de : Baudouin d'Aumeries
Soutien technique & logistique : Manuel Goepfert
Assistance : Marc-Olivier Méhu




SOURCES & CREDITS :

   NOAA